Terminal Aerodrome Forecast
Issued by NWS Pueblo, CO

Home | Current Version | Previous Version | Text Only | Print | Product List | Glossary On
Versions: 1 2 3 4 5 6 7 8 9 10 11 12 13 14 15 16 17 18 19 20 21 22 23 24 25 26 27 28 29 30 31 32 33 34 35 36 37 38 39
000
FTUS45 KPUB 260520
TAFCOS
TAF
KCOS 260520Z 2606/2706 36018G30KT P6SM SCT020 BKN040
      TEMPO 2606/2610 3SM -SN BR SCT010 BKN020
     FM261000 02015G25KT 5SM BR SCT010 BKN020
      TEMPO 2610/2614 2SM -SN BKN010
     FM261400 03014KT 2SM -SN BR BKN010=

USA.gov is the U.S. government's official web portal to all federal, state and local government web resources and services.